Time;durP1;ratioP1;P1;durP2;ratioP2;P2;SDS_P1;SDS_P2;PMS_P1;PMS_P2;Temp;Humidity;BMP_temperature;BMP_pressure;BME280_temperature;BME280_humidity;BME280_pressure;Samples;Min_cycle;Max_cycle;Signal;HPM_P1;HPM_P2
2023/04/21 00:01:33;;;;;;;16.63;13.53;;;5.30;99.90;;;;;;5114854;27;20204;-38
2023/04/21 00:03:59;;;;;;;15.13;13.03;;;5.30;99.90;;;;;;5115184;27;20180;-37
2023/04/21 00:06:25;;;;;;;15.03;12.30;;;5.20;99.90;;;;;;5133049;27;20209;-37
2023/04/21 00:08:51;;;;;;;13.43;12.00;;;5.20;99.90;;;;;;5097395;27;20204;-37
2023/04/21 00:11:17;;;;;;;14.80;12.63;;;5.20;99.90;;;;;;5115562;27;20196;-41
2023/04/21 00:13:44;;;;;;;14.80;12.40;;;5.10;99.90;;;;;;5114828;27;20247;-40
2023/04/21 00:16:10;;;;;;;15.73;13.33;;;5.00;99.90;;;;;;5114753;27;20202;-41
2023/04/21 00:18:35;;;;;;;19.23;14.77;;;4.80;99.90;;;;;;5114277;27;20542;-38
2023/04/21 00:21:01;;;;;;;16.47;14.27;;;4.80;99.90;;;;;;5135105;27;20214;-38
2023/04/21 00:23:27;;;;;;;16.60;13.97;;;4.80;99.90;;;;;;5136928;27;20196;-39
2023/04/21 00:25:53;;;;;;;20.37;15.00;;;4.80;99.90;;;;;;5118546;28;20173;-38
2023/04/21 00:28:19;;;;;;;17.03;14.40;;;4.80;99.90;;;;;;5117975;28;20186;-39
2023/04/21 00:30:45;;;;;;;17.77;14.30;;;4.90;99.90;;;;;;5118840;27;20189;-38
2023/04/21 00:33:11;;;;;;;18.80;15.00;;;4.90;99.90;;;;;;5100916;27;20184;-37
2023/04/21 00:35:36;;;;;;;18.87;14.80;;;4.90;99.90;;;;;;5120419;28;20322;-36
2023/04/21 00:38:02;;;;;;;16.90;14.47;;;4.90;99.90;;;;;;5120949;27;20196;-37
2023/04/21 00:40:28;;;;;;;16.30;13.30;;;4.90;99.90;;;;;;5121775;27;20229;-36
2023/04/21 00:42:54;;;;;;;18.00;13.97;;;4.90;99.90;;;;;;5121443;28;20199;-38
2023/04/21 00:45:20;;;;;;;17.23;14.23;;;4.90;99.90;;;;;;5104615;28;20197;-37
2023/04/21 00:47:46;;;;;;;18.87;12.70;;;4.90;99.90;;;;;;5120893;28;20249;-37
2023/04/21 00:50:12;;;;;;;16.73;13.57;;;4.90;99.90;;;;;;5104517;28;20245;-36
2023/04/21 00:52:42;;;;;;;17.07;12.63;;;4.80;99.90;;;;;;5120744;28;20183;-36
2023/04/21 00:55:09;;;;;;;15.67;12.83;;;4.90;99.90;;;;;;5120456;28;20664;-42
2023/04/21 00:57:38;;;;;;;16.43;13.27;;;4.80;99.90;;;;;;5112363;28;20266;-38
2023/04/21 01:00:05;;;;;;;16.73;13.07;;;4.80;99.90;;;;;;5117811;28;20223;-37
2023/04/21 01:02:33;;;;;;;16.40;13.07;;;4.80;99.90;;;;;;5118715;28;20203;-37
2023/04/21 01:04:59;;;;;;;16.10;13.30;;;4.80;99.90;;;;;;5102022;28;20271;-37
2023/04/21 01:07:25;;;;;;;14.53;10.93;;;4.70;99.90;;;;;;5101886;28;20191;-36
2023/04/21 01:09:51;;;;;;;11.20;9.83;;;4.70;99.90;;;;;;5118021;28;20191;-41
2023/04/21 01:12:17;;;;;;;36.60;10.47;;;4.60;99.90;;;;;;5115649;28;20242;-39
2023/04/21 01:14:43;;;;;;;31.93;10.23;;;4.60;99.90;;;;;;5113902;28;20185;-37
2023/04/21 01:17:10;;;;;;;15.00;9.80;;;4.50;99.90;;;;;;5113795;28;20180;-37
2023/04/21 01:19:41;;;;;;;24.13;11.37;;;4.40;99.90;;;;;;5113181;28;20175;-37
2023/04/21 01:22:11;;;;;;;33.17;11.83;;;4.40;99.90;;;;;;5097091;28;20196;-40
2023/04/21 01:24:39;;;;;;;25.20;12.10;;;4.30;99.90;;;;;;5114626;27;20168;-42
2023/04/21 01:27:09;;;;;;;23.40;11.77;;;4.30;99.90;;;;;;5110305;27;20172;-43
2023/04/21 01:29:35;;;;;;;18.37;13.00;;;4.30;99.90;;;;;;5099488;27;20172;-39
2023/04/21 01:32:11;;;;;;;21.33;15.10;;;4.30;99.90;;;;;;5100361;27;20193;-36
2023/04/21 01:34:38;;;;;;;23.20;15.50;;;4.30;99.90;;;;;;5133899;27;20691;-39
2023/04/21 01:37:10;;;;;;;26.73;15.67;;;4.40;99.90;;;;;;5100014;27;20180;-39
2023/04/21 01:39:41;;;;;;;18.47;14.83;;;4.40;99.90;;;;;;5100077;27;20270;-37
2023/04/21 01:42:08;;;;;;;20.23;15.87;;;4.50;99.90;;;;;;5099791;27;20249;-37
2023/04/21 01:44:35;;;;;;;26.17;16.60;;;4.50;99.90;;;;;;5117325;27;20164;-36
2023/04/21 01:47:01;;;;;;;44.03;17.83;;;4.60;99.90;;;;;;5100267;27;20180;-39
2023/04/21 01:49:27;;;;;;;54.70;17.90;;;4.50;99.90;;;;;;5116276;27;20197;-37
2023/04/21 01:51:52;;;;;;;45.20;15.53;;;4.40;99.90;;;;;;5116784;27;20255;-38
2023/04/21 01:54:18;;;;;;;47.00;16.83;;;4.30;99.90;;;;;;5134890;27;20184;-37
2023/04/21 01:56:44;;;;;;;46.83;17.60;;;4.30;99.90;;;;;;5100158;28;20186;-36
2023/04/21 01:59:10;;;;;;;24.17;14.27;;;4.30;99.90;;;;;;5116672;27;20183;-37
2023/04/21 02:01:36;;;;;;;23.00;15.67;;;4.20;99.90;;;;;;5116312;27;20263;-38
2023/04/21 02:04:04;;;;;;;26.17;15.70;;;4.20;99.90;;;;;;5116342;27;20186;-37
2023/04/21 02:06:30;;;;;;;22.63;16.03;;;4.10;99.90;;;;;;5116754;27;20195;-37
2023/04/21 02:08:57;;;;;;;27.57;16.67;;;4.20;99.90;;;;;;5116513;27;20179;-37
2023/04/21 02:11:26;;;;;;;36.63;17.83;;;4.30;99.90;;;;;;5099717;27;20233;-36
2023/04/21 02:13:54;;;;;;;37.17;15.53;;;4.30;99.90;;;;;;5098849;27;20225;-36
2023/04/21 02:16:20;;;;;;;30.33;15.37;;;4.30;99.90;;;;;;5116513;27;20643;-37
2023/04/21 02:18:47;;;;;;;24.00;15.67;;;4.30;99.90;;;;;;5116147;27;20175;-37
2023/04/21 02:21:14;;;;;;;35.37;15.97;;;4.30;99.90;;;;;;5115936;27;20200;-37
2023/04/21 02:23:41;;;;;;;63.13;16.67;;;4.20;99.90;;;;;;5115984;27;20183;-36
2023/04/21 02:26:06;;;;;;;75.37;17.43;;;4.20;99.90;;;;;;5091631;28;20188;-37
2023/04/21 02:28:32;;;;;;;23.43;16.80;;;4.20;99.90;;;;;;5103339;27;20201;-39
2023/04/21 02:30:58;;;;;;;27.73;17.27;;;4.20;99.90;;;;;;5134261;27;20223;-37
2023/04/21 02:33:24;;;;;;;24.43;17.27;;;4.30;99.90;;;;;;5115700;27;20204;-38
2023/04/21 02:35:50;;;;;;;25.57;18.23;;;4.40;99.90;;;;;;5098780;27;20524;-37
2023/04/21 02:38:16;;;;;;;24.50;17.73;;;4.40;99.90;;;;;;5114903;27;20179;-36
2023/04/21 02:40:41;;;;;;;26.13;17.80;;;4.50;99.90;;;;;;5115534;27;20721;-36
2023/04/21 02:43:07;;;;;;;23.63;17.63;;;4.40;99.90;;;;;;5115806;27;20341;-36
2023/04/21 02:45:33;;;;;;;23.57;17.90;;;4.40;99.90;;;;;;5098594;27;20168;-37
2023/04/21 02:47:59;;;;;;;26.43;18.07;;;4.40;99.90;;;;;;5115382;27;20180;-39
2023/04/21 02:50:25;;;;;;;30.10;18.80;;;4.50;99.90;;;;;;5115230;27;20217;-36
2023/04/21 02:52:51;;;;;;;24.40;17.00;;;4.40;99.90;;;;;;5105865;28;20176;-36
2023/04/21 02:55:17;;;;;;;22.97;16.70;;;4.40;99.90;;;;;;5114920;27;20240;-39
2023/04/21 02:57:42;;;;;;;21.77;16.63;;;4.40;99.90;;;;;;5115098;27;20180;-36
2023/04/21 03:00:11;;;;;;;20.40;15.27;;;4.40;99.90;;;;;;5098017;27;20202;-41
2023/04/21 03:02:37;;;;;;;19.30;14.23;;;4.40;99.90;;;;;;5114783;27;20195;-39
2023/04/21 03:05:03;;;;;;;18.80;13.50;;;4.40;99.90;;;;;;5115000;27;20262;-38
2023/04/21 03:07:30;;;;;;;19.07;14.20;;;4.40;99.90;;;;;;5084862;27;20171;-40
2023/04/21 03:09:55;;;;;;;18.60;13.60;;;4.40;99.90;;;;;;5097061;27;20195;-41
2023/04/21 03:12:21;;;;;;;19.90;14.03;;;4.40;99.90;;;;;;5114961;27;20175;-41
2023/04/21 03:14:47;;;;;;;18.03;13.37;;;4.40;99.90;;;;;;5097221;27;20177;-41
2023/04/21 03:17:13;;;;;;;25.00;14.97;;;4.40;99.90;;;;;;5133444;27;20182;-38
2023/04/21 03:19:39;;;;;;;21.33;14.13;;;4.40;99.90;;;;;;5097680;27;20172;-40
2023/04/21 03:22:05;;;;;;;18.00;13.20;;;4.40;99.90;;;;;;5098106;27;20203;-39
2023/04/21 03:24:31;;;;;;;19.60;14.20;;;4.40;99.90;;;;;;5114237;27;20640;-42
2023/04/21 03:26:57;;;;;;;18.63;12.77;;;4.40;99.90;;;;;;5100643;27;20181;-37
2023/04/21 03:29:23;;;;;;;19.13;13.67;;;4.30;99.90;;;;;;5113290;27;20266;-36
2023/04/21 03:31:49;;;;;;;16.90;12.10;;;4.30;99.90;;;;;;5114725;27;20259;-37
2023/04/21 03:34:15;;;;;;;14.63;10.97;;;4.30;99.90;;;;;;5114493;27;20224;-37
2023/04/21 03:36:42;;;;;;;14.90;10.80;;;4.20;99.90;;;;;;5114833;27;20175;-39
2023/04/21 03:39:08;;;;;;;15.73;11.33;;;4.10;99.90;;;;;;5096007;27;20217;-39
2023/04/21 03:41:34;;;;;;;15.40;11.03;;;4.00;99.90;;;;;;5110204;27;20235;-36
2023/04/21 03:44:00;;;;;;;17.60;12.30;;;3.90;99.90;;;;;;5097639;27;20189;-38
2023/04/21 03:46:25;;;;;;;19.03;12.83;;;3.90;99.90;;;;;;5132892;27;20179;-38
2023/04/21 03:48:51;;;;;;;18.50;12.50;;;3.80;99.90;;;;;;5096968;27;20206;-38
2023/04/21 03:51:17;;;;;;;17.00;12.40;;;3.80;99.90;;;;;;5114137;22;20235;-42
2023/04/21 03:53:43;;;;;;;18.60;13.23;;;3.80;99.90;;;;;;5090640;28;20164;-38
2023/04/21 03:56:09;;;;;;;18.67;13.17;;;3.70;99.90;;;;;;5107821;28;20249;-42
2023/04/21 03:58:35;;;;;;;18.90;13.53;;;3.80;99.90;;;;;;5073424;28;20176;-40
2023/04/21 04:01:03;;;;;;;20.53;13.00;;;3.80;99.90;;;;;;5086621;28;20196;-39
2023/04/21 04:03:29;;;;;;;22.27;13.67;;;3.80;99.90;;;;;;5088056;28;20208;-41
2023/04/21 04:05:55;;;;;;;16.73;11.90;;;3.70;99.90;;;;;;5090037;28;20203;-41
2023/04/21 04:08:20;;;;;;;18.73;12.90;;;3.70;99.90;;;;;;5062382;28;20173;-41
2023/04/21 04:10:46;;;;;;;21.07;13.37;;;3.70;99.90;;;;;;5076041;28;20193;-40
2023/04/21 04:13:12;;;;;;;20.40;13.67;;;3.70;99.90;;;;;;5072221;28;20188;-39
2023/04/21 04:15:38;;;;;;;21.67;12.67;;;3.80;99.90;;;;;;5071399;28;20183;-40
2023/04/21 04:18:03;;;;;;;18.00;12.27;;;3.80;99.90;;;;;;5069534;28;20617;-41
2023/04/21 04:20:29;;;;;;;21.73;13.90;;;3.80;99.90;;;;;;5085991;28;20200;-41
2023/04/21 04:22:55;;;;;;;21.87;13.37;;;3.80;99.90;;;;;;5090043;28;20231;-41
2023/04/21 04:25:21;;;;;;;21.03;12.57;;;3.80;99.90;;;;;;5088308;28;20176;-42
2023/04/21 04:27:48;;;;;;;19.73;12.80;;;3.90;99.90;;;;;;5081720;28;20231;-40
2023/04/21 04:30:15;;;;;;;22.63;13.90;;;3.80;99.90;;;;;;5069536;28;20224;-41
2023/04/21 04:32:41;;;;;;;22.90;13.83;;;3.90;99.90;;;;;;5065028;28;20207;-40
2023/04/21 04:35:08;;;;;;;16.93;11.70;;;3.90;99.90;;;;;;5057578;28;20181;-41
2023/04/21 04:37:38;;;;;;;20.30;13.63;;;3.90;99.90;;;;;;5078785;28;20219;-42
2023/04/21 04:40:05;;;;;;;21.73;13.87;;;3.90;99.90;;;;;;5083119;28;20181;-41
2023/04/21 04:42:32;;;;;;;21.53;13.73;;;3.80;99.90;;;;;;5089075;28;20211;-42
2023/04/21 04:44:58;;;;;;;20.07;12.97;;;3.90;99.90;;;;;;5070537;28;20184;-41
2023/04/21 04:47:24;;;;;;;22.93;14.00;;;3.90;99.90;;;;;;5052935;28;20185;-41
2023/04/21 04:49:50;;;;;;;23.77;12.50;;;3.90;99.90;;;;;;5073902;28;20640;-39
2023/04/21 04:52:16;;;;;;;20.47;12.33;;;3.90;99.90;;;;;;5078249;28;20220;-41
2023/04/21 04:54:41;;;;;;;18.20;12.87;;;3.90;99.90;;;;;;5069346;28;20173;-39
2023/04/21 04:57:07;;;;;;;21.27;13.30;;;3.90;99.90;;;;;;5070799;28;20188;-42
2023/04/21 04:59:33;;;;;;;17.80;12.37;;;4.00;99.90;;;;;;5073739;28;20203;-41
2023/04/21 05:01:59;;;;;;;20.17;13.67;;;4.00;99.90;;;;;;5066201;28;20208;-41
2023/04/21 05:04:24;;;;;;;18.47;12.30;;;4.00;99.90;;;;;;5084382;28;20269;-40
2023/04/21 05:06:51;;;;;;;22.87;11.07;;;4.00;99.90;;;;;;5093805;28;20263;-41
2023/04/21 05:09:16;;;;;;;14.27;10.50;;;4.00;99.90;;;;;;5077830;28;20181;-41
2023/04/21 05:11:42;;;;;;;17.00;11.30;;;4.00;99.90;;;;;;5073852;28;20193;-41
2023/04/21 05:14:08;;;;;;;15.93;10.97;;;4.00;99.90;;;;;;5078447;28;20188;-42
2023/04/21 05:16:34;;;;;;;15.90;10.27;;;4.00;99.90;;;;;;5070336;28;20177;-41
2023/04/21 05:19:01;;;;;;;17.77;10.17;;;4.10;99.90;;;;;;5055169;28;20193;-41
2023/04/21 05:21:27;;;;;;;15.90;10.87;;;4.10;99.90;;;;;;5074008;28;20212;-41
2023/04/21 05:23:54;;;;;;;24.73;10.63;;;4.20;99.90;;;;;;5076621;28;20252;-41
2023/04/21 05:26:21;;;;;;;16.50;10.30;;;4.20;99.90;;;;;;5072789;28;20174;-41
2023/04/21 05:28:47;;;;;;;15.53;9.97;;;4.20;99.90;;;;;;5057423;28;20684;-40
2023/04/21 05:31:14;;;;;;;13.83;10.20;;;4.10;99.90;;;;;;5077779;28;20197;-41
2023/04/21 05:33:41;;;;;;;19.43;10.80;;;4.20;99.90;;;;;;5079027;28;20190;-38
2023/04/21 05:36:08;;;;;;;17.77;10.90;;;4.20;99.90;;;;;;5056548;28;20203;-41
2023/04/21 05:38:35;;;;;;;20.13;12.67;;;4.20;99.90;;;;;;5073983;28;20178;-42
2023/04/21 05:41:04;;;;;;;17.93;12.00;;;4.00;99.90;;;;;;5084636;28;20213;-40
2023/04/21 05:43:34;;;;;;;19.77;12.97;;;4.00;99.90;;;;;;5072446;28;20319;-39
2023/04/21 05:46:01;;;;;;;22.13;13.17;;;4.10;99.90;;;;;;5072782;28;20249;-41
2023/04/21 05:48:30;;;;;;;22.47;12.77;;;4.10;99.90;;;;;;5073889;28;20181;-40
2023/04/21 05:51:08;;;;;;;19.87;12.20;;;4.00;99.90;;;;;;5075003;28;20273;-39
2023/04/21 05:53:35;;;;;;;23.07;13.67;;;4.10;99.90;;;;;;5074555;28;20182;-37
2023/04/21 05:56:07;;;;;;;20.90;13.30;;;4.10;99.90;;;;;;5059874;28;20216;-38
2023/04/21 05:58:35;;;;;;;19.40;13.10;;;4.10;99.90;;;;;;5075084;28;20261;-38
2023/04/21 06:01:05;;;;;;;18.97;13.13;;;4.10;99.90;;;;;;5083647;28;20213;-40
2023/04/21 06:03:33;;;;;;;19.97;13.03;;;4.20;99.90;;;;;;5093542;28;20214;-36
2023/04/21 06:06:01;;;;;;;39.37;18.87;;;4.10;99.90;;;;;;5069516;28;20181;-41
2023/04/21 06:08:32;;;;;;;17.00;12.10;;;4.20;99.90;;;;;;5057932;28;20237;-41
2023/04/21 06:10:58;;;;;;;12.93;9.53;;;4.30;99.90;;;;;;5072211;28;20200;-41
2023/04/21 06:13:23;;;;;;;11.93;8.80;;;4.30;99.90;;;;;;5078776;28;20265;-41
2023/04/21 06:15:49;;;;;;;14.53;11.90;;;4.30;99.90;;;;;;5081490;28;20169;-41
2023/04/21 06:18:17;;;;;;;15.57;12.00;;;4.30;99.90;;;;;;5082673;28;20181;-42
2023/04/21 06:20:49;;;;;;;12.53;9.60;;;4.30;99.90;;;;;;5072032;28;20200;-41
2023/04/21 06:23:15;;;;;;;11.20;8.23;;;4.30;99.90;;;;;;5085674;28;20688;-40
2023/04/21 06:25:41;;;;;;;10.63;8.40;;;4.30;99.90;;;;;;5093600;28;20204;-40
2023/04/21 06:28:07;;;;;;;9.70;7.70;;;4.50;99.90;;;;;;5075508;28;20209;-42
2023/04/21 06:30:32;;;;;;;10.43;7.87;;;4.60;99.90;;;;;;5071360;28;20202;-41
2023/04/21 06:32:58;;;;;;;10.00;7.70;;;4.70;99.90;;;;;;5072931;28;20177;-41
2023/04/21 06:35:24;;;;;;;12.23;8.70;;;4.80;99.90;;;;;;5055398;28;20272;-42
2023/04/21 06:37:50;;;;;;;11.10;8.10;;;4.80;99.90;;;;;;5079739;28;20265;-42
2023/04/21 06:40:16;;;;;;;10.37;8.07;;;4.90;99.90;;;;;;5071664;28;20266;-41
2023/04/21 06:42:42;;;;;;;11.17;8.63;;;5.00;99.90;;;;;;5082239;28;20726;-41
2023/04/21 06:45:08;;;;;;;11.23;8.30;;;5.00;99.90;;;;;;5064819;28;20177;-41
2023/04/21 06:47:34;;;;;;;12.67;8.47;;;5.10;99.90;;;;;;5071381;28;20182;-40
2023/04/21 06:50:00;;;;;;;11.03;8.67;;;5.00;99.90;;;;;;5062868;28;20263;-40
2023/04/21 06:52:26;;;;;;;10.07;8.03;;;5.00;99.90;;;;;;5067225;28;20716;-41
2023/04/21 06:54:52;;;;;;;11.10;8.73;;;5.00;99.90;;;;;;5061352;28;20169;-41
2023/04/21 06:57:18;;;;;;;11.43;8.83;;;5.00;99.90;;;;;;5067950;28;20183;-41
2023/04/21 06:59:45;;;;;;;10.50;8.13;;;5.00;99.90;;;;;;5059771;28;20253;-41
2023/04/21 07:02:11;;;;;;;11.83;8.67;;;5.10;99.90;;;;;;5063092;28;20206;-41
2023/04/21 07:04:37;;;;;;;11.03;8.13;;;5.20;99.90;;;;;;5061467;28;20191;-42
2023/04/21 07:07:03;;;;;;;10.80;8.60;;;5.20;99.90;;;;;;5068082;28;20183;-39
2023/04/21 07:09:29;;;;;;;11.67;8.20;;;5.30;99.90;;;;;;5067210;28;20625;-41
2023/04/21 07:11:55;;;;;;;10.07;7.47;;;5.30;99.90;;;;;;5068549;28;20320;-42
2023/04/21 07:14:21;;;;;;;10.10;8.00;;;5.30;99.90;;;;;;5067132;28;20265;-41
2023/04/21 07:16:47;;;;;;;11.40;9.17;;;5.30;99.90;;;;;;5068475;28;20179;-40
2023/04/21 07:19:12;;;;;;;11.10;8.57;;;5.40;99.90;;;;;;5060530;28;20170;-42
2023/04/21 07:21:38;;;;;;;10.27;8.00;;;5.40;99.90;;;;;;5057849;28;20276;-41
2023/04/21 07:24:07;;;;;;;10.63;7.97;;;5.50;99.90;;;;;;5068546;28;20218;-42
2023/04/21 07:26:33;;;;;;;11.90;8.90;;;5.50;99.90;;;;;;5052176;28;20273;-41
2023/04/21 07:28:59;;;;;;;12.43;9.40;;;5.60;99.90;;;;;;5067355;28;20640;-42
2023/04/21 07:31:24;;;;;;;10.33;8.20;;;5.60;99.90;;;;;;5066676;28;20204;-40
2023/04/21 07:33:50;;;;;;;9.83;7.87;;;5.70;99.90;;;;;;5062016;28;20177;-41
2023/04/21 07:36:16;;;;;;;11.77;8.90;;;5.60;99.90;;;;;;5061875;28;20228;-41
2023/04/21 07:38:43;;;;;;;10.47;8.13;;;5.70;99.90;;;;;;5061411;28;20196;-42
2023/04/21 07:41:10;;;;;;;10.77;8.00;;;5.70;99.90;;;;;;5052940;28;20286;-41
2023/04/21 07:43:36;;;;;;;11.00;8.47;;;5.80;99.90;;;;;;5060974;28;20209;-41
2023/04/21 07:46:02;;;;;;;10.97;8.30;;;5.90;99.90;;;;;;5065680;28;20233;-41
2023/04/21 07:48:28;;;;;;;11.90;9.40;;;5.90;99.90;;;;;;5060932;28;20265;-41
2023/04/21 07:50:54;;;;;;;11.93;9.17;;;6.00;99.90;;;;;;5067213;28;20225;-39
2023/04/21 07:53:20;;;;;;;11.93;9.43;;;6.00;99.90;;;;;;5065881;28;20191;-36
2023/04/21 07:55:46;;;;;;;11.00;8.73;;;6.10;99.90;;;;;;5066809;28;20631;-37
2023/04/21 07:58:12;;;;;;;13.27;8.97;;;6.30;99.90;;;;;;5068080;28;20236;-35
2023/04/21 08:00:38;;;;;;;10.47;8.80;;;6.40;99.90;;;;;;5063697;28;20212;-38
2023/04/21 08:03:04;;;;;;;11.03;8.90;;;6.50;99.90;;;;;;5059600;28;20207;-41
2023/04/21 08:05:31;;;;;;;10.97;8.67;;;6.50;99.90;;;;;;5061146;28;20185;-42
2023/04/21 08:07:57;;;;;;;11.87;8.63;;;6.70;99.90;;;;;;5066521;28;20187;-41
2023/04/21 08:10:23;;;;;;;11.47;8.97;;;6.90;99.90;;;;;;5066965;28;20237;-42
2023/04/21 08:12:49;;;;;;;10.27;7.77;;;6.90;99.90;;;;;;5067781;28;20220;-41
2023/04/21 08:15:15;;;;;;;12.30;9.30;;;7.10;99.90;;;;;;5067712;28;20181;-42
2023/04/21 08:17:41;;;;;;;10.13;8.00;;;7.30;99.90;;;;;;5066555;28;20184;-42
2023/04/21 08:20:08;;;;;;;10.30;8.73;;;7.50;99.90;;;;;;5067087;28;20188;-42
2023/04/21 08:22:36;;;;;;;10.00;8.13;;;7.70;99.90;;;;;;5049675;28;20209;-39
2023/04/21 08:25:04;;;;;;;9.37;8.03;;;8.00;99.90;;;;;;5060860;28;20196;-41
2023/04/21 08:27:30;;;;;;;8.63;7.50;;;8.10;99.90;;;;;;5067181;28;20177;-39
2023/04/21 08:29:56;;;;;;;10.57;8.73;;;8.30;99.90;;;;;;5060277;28;20177;-41
2023/04/21 08:32:23;;;;;;;10.87;8.67;;;8.40;99.90;;;;;;5061281;28;20374;-42
2023/04/21 08:34:50;;;;;;;10.80;8.73;;;8.60;99.90;;;;;;5050871;28;20188;-41
2023/04/21 08:37:17;;;;;;;11.43;8.77;;;8.70;99.90;;;;;;5061101;28;20174;-39
2023/04/21 08:39:44;;;;;;;9.53;8.53;;;8.70;99.90;;;;;;5066762;28;20173;-42
2023/04/21 08:42:12;;;;;;;9.47;7.93;;;8.70;99.90;;;;;;5067533;28;20201;-42
2023/04/21 08:44:40;;;;;;;11.47;9.00;;;8.80;99.90;;;;;;5059238;28;20185;-42
2023/04/21 08:47:12;;;;;;;11.03;8.80;;;9.10;99.90;;;;;;5068122;28;20192;-42
2023/04/21 08:49:39;;;;;;;10.73;9.07;;;9.30;99.90;;;;;;5050421;28;20362;-42
2023/04/21 08:52:05;;;;;;;10.47;8.73;;;9.60;99.90;;;;;;5066539;28;20308;-41
2023/04/21 08:54:31;;;;;;;9.70;8.10;;;9.80;99.90;;;;;;5059695;28;20210;-41
2023/04/21 08:56:58;;;;;;;10.03;8.67;;;10.20;99.90;;;;;;5066911;28;20178;-41
2023/04/21 08:59:24;;;;;;;11.70;8.90;;;10.30;99.90;;;;;;5064705;28;20185;-43
2023/04/21 09:02:16;;;;;;;10.33;8.80;;;10.40;99.90;;;;;;5065385;28;20209;-40
2023/04/21 09:04:47;;;;;;;9.63;8.60;;;10.50;99.90;;;;;;5059548;28;20170;-42
2023/04/21 09:07:33;;;;;;;9.40;8.00;;;10.50;99.90;;;;;;5048437;28;20204;-38
2023/04/21 09:10:00;;;;;;;11.20;9.83;;;10.60;99.90;;;;;;5065705;28;20174;-41
2023/04/21 09:12:26;;;;;;;10.37;9.00;;;10.70;99.90;;;;;;5066776;28;20170;-42
2023/04/21 09:14:52;;;;;;;10.23;8.70;;;10.80;99.90;;;;;;5066060;28;20693;-42
2023/04/21 09:17:22;;;;;;;8.93;8.03;;;11.00;99.90;;;;;;5059287;28;20308;-41
2023/04/21 09:19:47;;;;;;;10.00;8.60;;;11.20;99.90;;;;;;5066714;28;20170;-38
2023/04/21 09:22:15;;;;;;;9.80;8.80;;;11.10;99.90;;;;;;5057824;28;20205;-38
2023/04/21 09:24:48;;;;;;;9.50;8.10;;;11.30;99.90;;;;;;5068535;28;20182;-37
2023/04/21 09:27:15;;;;;;;8.13;7.33;;;11.40;99.90;;;;;;5060719;28;20179;-40
2023/04/21 09:29:47;;;;;;;8.90;7.90;;;11.40;99.90;;;;;;5066989;28;20179;-39
2023/04/21 09:32:19;;;;;;;9.03;7.93;;;11.70;99.90;;;;;;5059032;28;20199;-41
2023/04/21 09:34:46;;;;;;;8.53;7.63;;;12.00;99.90;;;;;;5058746;28;20174;-41
2023/04/21 09:37:13;;;;;;;8.43;6.80;;;12.20;99.90;;;;;;5067567;28;20207;-39
2023/04/21 09:39:44;;;;;;;6.87;6.17;;;12.40;99.90;;;;;;5067334;28;20191;-38
2023/04/21 09:42:10;;;;;;;5.73;5.20;;;12.50;99.90;;;;;;5064936;28;20221;-39
2023/04/21 09:44:37;;;;;;;4.80;4.30;;;12.70;99.90;;;;;;5067164;28;20264;-38
2023/04/21 09:47:03;;;;;;;4.20;3.67;;;12.90;99.90;;;;;;5070714;28;20180;-41
2023/04/21 09:49:34;;;;;;;3.10;2.77;;;13.10;99.90;;;;;;5069437;28;20182;-40
2023/04/21 09:52:01;;;;;;;3.47;3.17;;;13.30;99.90;;;;;;5061588;28;20232;-41
2023/04/21 09:54:31;;;;;;;4.00;3.40;;;13.50;99.90;;;;;;5070859;28;20208;-42
2023/04/21 09:57:03;;;;;;;5.93;5.30;;;13.30;99.90;;;;;;5068336;28;20185;-42
2023/04/21 09:59:33;;;;;;;5.87;5.27;;;13.60;99.90;;;;;;5070088;28;20212;-42
2023/04/21 10:02:02;;;;;;;4.93;4.43;;;13.70;99.90;;;;;;5071918;28;20247;-40
2023/04/21 10:04:31;;;;;;;4.87;4.37;;;13.80;99.90;;;;;;5072853;28;20265;-41
2023/04/21 10:07:01;;;;;;;7.07;6.17;;;14.00;99.90;;;;;;5070821;28;20174;-42
2023/04/21 10:09:35;;;;;;;8.00;5.73;;;14.30;99.90;;;;;;5069378;28;20222;-42
2023/04/21 10:12:04;;;;;;;5.00;4.50;;;14.40;99.90;;;;;;5055206;28;20284;-42
2023/04/21 10:14:30;;;;;;;4.73;4.00;;;14.50;99.90;;;;;;5055018;28;20192;-42
2023/04/21 10:17:09;;;;;;;3.63;3.33;;;14.70;99.90;;;;;;5071775;28;20173;-42
2023/04/21 10:19:46;;;;;;;3.87;3.47;;;14.80;99.90;;;;;;5054809;28;20190;-42
2023/04/21 10:22:12;;;;;;;4.70;3.60;;;15.00;99.90;;;;;;5071920;28;20217;-42
2023/04/21 10:24:39;;;;;;;4.73;4.23;;;14.90;99.90;;;;;;5072171;28;20183;-43
2023/04/21 10:27:10;;;;;;;4.43;4.00;;;14.70;99.90;;;;;;5055074;28;20185;-41
2023/04/21 10:29:36;;;;;;;4.27;3.60;;;14.60;99.90;;;;;;5072651;28;20173;-43
2023/04/21 10:32:03;;;;;;;3.47;3.17;;;14.90;99.90;;;;;;5071464;28;20208;-42
2023/04/21 10:34:35;;;;;;;4.50;3.93;;;15.10;99.90;;;;;;5058145;28;20185;-42
2023/04/21 10:37:04;;;;;;;4.27;3.80;;;15.30;99.90;;;;;;5068915;28;20220;-41
2023/04/21 10:39:34;;;;;;;5.10;4.30;;;15.50;99.90;;;;;;5068652;28;20240;-41
2023/04/21 10:42:12;;;;;;;5.00;3.80;;;15.50;99.90;;;;;;5068172;28;20247;-42
2023/04/21 10:45:06;;;;;;;4.37;3.63;;;15.40;99.90;;;;;;5075376;28;20173;-42
2023/04/21 10:47:48;;;;;;;3.87;3.57;;;15.50;99.90;;;;;;5080244;28;20211;-42
2023/04/21 10:50:19;;;;;;;4.00;3.60;;;15.50;99.90;;;;;;5069938;28;20192;-41
2023/04/21 10:52:51;;;;;;;4.53;3.80;;;15.70;99.90;;;;;;5081433;28;20197;-42
2023/04/21 10:55:17;;;;;;;4.10;3.63;;;15.80;99.90;;;;;;5065911;28;20223;-43
2023/04/21 10:57:44;;;;;;;4.00;3.60;;;15.90;99.90;;;;;;5070933;28;20755;-43
2023/04/21 11:00:14;;;;;;;3.38;3.08;;;16.20;99.90;;;;;;5073109;28;20181;-40
2023/04/21 11:02:40;;;;;;;3.80;3.43;;;16.40;99.90;;;;;;5090387;28;20261;-42
2023/04/21 11:05:08;;;;;;;3.90;3.60;;;16.60;99.90;;;;;;5073822;28;20180;-43
2023/04/21 11:07:36;;;;;;;4.05;3.65;;;16.90;99.90;;;;;;5070438;28;20178;-42
2023/04/21 11:10:10;;;;;;;4.78;4.03;;;17.00;99.90;;;;;;5073614;28;20216;-42
2023/04/21 11:12:40;;;;;;;3.90;3.58;;;16.90;99.90;;;;;;5070605;28;20176;-43
2023/04/21 11:15:09;;;;;;;5.65;4.80;;;16.90;99.90;;;;;;5066561;28;20181;-43
2023/04/21 11:17:38;;;;;;;6.28;5.20;;;17.00;99.90;;;;;;5053716;28;20264;-42
2023/04/21 11:20:05;;;;;;;6.43;5.32;;;17.20;99.90;;;;;;5070619;28;20274;-43
2023/04/21 11:22:32;;;;;;;5.30;4.53;;;17.30;99.90;;;;;;5070362;28;20209;-42
2023/04/21 11:24:58;;;;;;;6.10;4.75;;;17.50;99.90;;;;;;5044882;28;20177;-43
2023/04/21 11:27:31;;;;;;;5.60;4.93;;;17.70;99.90;;;;;;5071372;28;20209;-43
2023/04/21 11:29:56;;;;;;;4.60;4.20;;;17.90;99.90;;;;;;5070630;28;20188;-40
2023/04/21 11:32:22;;;;;;;4.20;3.80;;;18.00;99.90;;;;;;5069892;28;20177;-43
2023/04/21 11:34:49;;;;;;;5.93;5.13;;;18.20;99.90;;;;;;5078666;28;20173;-43
2023/04/21 11:37:22;;;;;;;4.70;4.20;;;18.30;99.90;;;;;;5069990;28;20177;-42
2023/04/21 11:39:48;;;;;;;4.57;4.18;;;18.50;99.90;;;;;;5077375;28;20267;-42
2023/04/21 11:42:20;;;;;;;5.57;5.07;;;18.60;99.90;;;;;;5071771;28;20322;-43
2023/04/21 11:44:46;;;;;;;5.78;5.15;;;18.50;99.90;;;;;;5090873;28;20169;-42
2023/04/21 11:47:18;;;;;;;6.43;5.65;;;18.20;99.90;;;;;;5088660;28;20176;-43
2023/04/21 11:50:00;;;;;;;5.82;5.22;;;18.40;99.90;;;;;;5073414;28;20205;-42
2023/04/21 11:52:28;;;;;;;6.68;4.82;;;18.30;99.90;;;;;;5071591;28;20250;-40
2023/04/21 11:54:59;;;;;;;7.38;5.85;;;18.30;99.90;;;;;;5074524;28;20188;-43
2023/04/21 11:57:26;;;;;;;6.30;5.70;;;18.40;99.90;;;;;;5069767;28;20268;-42
2023/04/21 11:59:52;;;;;;;5.75;5.15;;;18.40;99.90;;;;;;5065230;28;20185;-41
2023/04/21 12:02:27;;;;;;;5.78;5.20;;;18.70;99.90;;;;;;5049332;28;20200;-41
2023/04/21 12:05:02;;;;;;;5.75;5.15;;;18.50;99.90;;;;;;5083033;28;20177;-41
2023/04/21 12:07:31;;;;;;;5.88;5.28;;;18.40;99.90;;;;;;5067145;28;20200;-42
2023/04/21 12:09:58;;;;;;;6.20;5.00;;;18.50;99.90;;;;;;5065104;28;20227;-42
2023/04/21 12:12:26;;;;;;;6.57;5.13;;;18.60;99.90;;;;;;5065655;28;20209;-40
2023/04/21 12:14:52;;;;;;;5.72;5.03;;;18.70;99.90;;;;;;5067280;28;20211;-41
2023/04/21 12:17:19;;;;;;;6.53;5.72;;;18.80;99.90;;;;;;5057006;28;20256;-42
2023/04/21 12:19:45;;;;;;;6.15;5.50;;;19.10;99.90;;;;;;5071824;28;20177;-41
2023/04/21 12:22:21;;;;;;;5.68;5.07;;;19.40;99.90;;;;;;5066347;28;20684;-42
2023/04/21 12:24:47;;;;;;;5.55;4.70;;;19.40;99.90;;;;;;5069172;28;20177;-42
2023/04/21 12:27:13;;;;;;;5.70;4.53;;;19.60;99.90;;;;;;5067821;28;20185;-42
2023/04/21 12:29:40;;;;;;;5.78;4.80;;;19.80;99.90;;;;;;5069354;28;20185;-42
2023/04/21 12:32:07;;;;;;;4.78;4.38;;;20.00;99.90;;;;;;5069352;28;20196;-41
2023/04/21 12:34:33;;;;;;;6.32;5.07;;;20.00;99.90;;;;;;5066666;28;20188;-42
2023/04/21 12:36:59;;;;;;;4.82;4.40;;;20.20;99.90;;;;;;5051237;28;20707;-43
2023/04/21 12:39:25;;;;;;;5.85;4.30;;;20.40;99.90;;;;;;5055151;28;20181;-42
2023/04/21 12:41:51;;;;;;;7.22;5.25;;;20.60;99.90;;;;;;5078738;28;20244;-42
2023/04/21 12:44:17;;;;;;;5.95;4.95;;;20.60;99.90;;;;;;5083986;28;20177;-42